EW2730 Weather Reports


Display with metric or nautical units.
time (UTC)temp
F
wind
direction
speed
MPH
gust
MPH
rain 1hr
in
rain 24hr
in
rain mn
in
humidity
%
barometer
mb
20180124054208 13 321 7.0 17.0 0.00 0.30 0.00 89
20180124052700 13 5 7.0 17.0 0.00 0.30 0.00 89
20180124051156 14 339 7.0 15.0 0.00 0.30 0.00 89
20180124045652 14 325 8.0 17.0 0.00 0.30 0.30 89
20180124044147 15 306 10.0 21.0 0.00 0.30 0.30 89
20180124042641 16 344 10.0 21.0 0.00 0.30 0.30 89
20180124041138 16 284 8.0 17.0 0.00 0.30 0.30 90
20180124035634 17 313 8.0 16.0 0.00 0.34 0.30 90
20180124034127 17 323 7.0 14.0 0.00 0.34 0.30 89
20180124032622 17 326 7.0 18.0 0.00 0.34 0.30 88
20180124031119 17 346 8.0 15.0 0.00 0.34 0.30 89
20180124025614 18 314 7.0 17.0 0.00 0.40 0.30 88
20180124024107 18 360 8.0 16.0 0.00 0.40 0.30 87
20180124022606 18 297 6.0 15.0 0.00 0.40 0.30 87
20180124021101 18 306 7.0 15.0 0.00 0.40 0.30 87
20180124015556 18 350 9.0 18.0 0.00 0.44 0.30 87
20180124014052 18 323 10.0 20.0 0.00 0.44 0.30 88
20180124012546 18 17 9.0 19.0 0.00 0.44 0.30 89
20180124011044 19 20 10.0 17.0 0.00 0.44 0.30 90
20180124005537 19 321 9.0 21.0 0.00 0.51 0.30 91
20180124004031 19 350 7.0 18.0 0.00 0.51 0.30 92
20180124002531 20 341 10.0 20.0 0.00 0.51 0.30 93
20180124001025 20 304 9.0 21.0 0.00 0.51 0.30 93
20180123235523 20 23 7.0 18.0 0.00 0.51 0.30 93
20180123234019 20 309 10.0 19.0 0.00 0.51 0.30 93
20180123232515 21 314 7.0 16.0 0.00 0.51 0.30 94
20180123231010 21 288 7.0 15.0 0.00 0.51 0.30 94
20180123225505 21 298 9.0 17.0 0.00 0.51 0.30 94
20180123224002 21 323 10.0 19.0 0.00 0.51 0.30 94
20180123222454 22 334 9.0 17.0 0.00 0.51 0.30 94
20180123220948 22 25 10.0 22.0 0.00 0.51 0.30 94
20180123215445 23 296 10.0 21.0 0.00 0.51 0.30 94
20180123213942 24 323 10.0 25.0 0.00 0.51 0.30 94
20180123212435 25 281 12.0 22.0 0.00 0.51 0.30 94
20180123210928 26 300 9.0 21.0 0.00 0.51 0.30 93
20180123205424 27 340 10.0 22.0 0.00 0.55 0.30 94
20180123203922 28 303 11.0 20.0 0.00 0.55 0.30 95
20180123202418 30 291 7.0 17.0 0.01 0.55 0.30 95
20180123200910 31 205 8.0 16.0 0.01 0.55 0.30 94
20180123195405 32 238 6.0 15.0 0.03 0.68 0.30 93
20180123193900 33 246 11.0 22.0 0.04 0.68 0.30 91
20180123192356 34 240 6.0 16.0 0.03 0.67 0.28 92
20180123190853 35 186 4.0 16.0 0.03 0.67 0.28 91
20180123185349 36 163 9.0 16.0 0.01 0.81 0.27 89
20180123183847 37 224 4.0 14.0 0.00 0.80 0.26 88
20180123182349 37 250 6.0 11.0 0.00 0.80 0.26 88
20180123180845 37 169 6.0 13.0 0.00 0.80 0.26 88
20180123175336 37 221 5.0 13.0 0.00 0.86 0.26 88
20180123173830 37 290 5.0 13.0 0.00 0.86 0.26 90
20180123172326 38 225 5.0 11.0 0.00 0.86 0.26 90
20180123170824 38 266 4.0 10.0 0.00 0.86 0.26 90
20180123165315 39 245 3.0 11.0 0.00 0.92 0.26 90
20180123163811 39 252 6.0 13.0 0.00 0.92 0.26 90
20180123162305 40 213 5.0 17.0 0.00 0.92 0.26 93
20180123160801 40 222 3.0 11.0 0.00 0.92 0.26 95
20180123155257 39 191 3.0 7.0 0.00 0.95 0.26 96
20180123153754 39 182 6.0 10.0 0.00 0.95 0.26 96
20180123152252 39 171 5.0 9.0 0.00 0.95 0.26 96
20180123150748 39 184 3.0 7.0 0.00 0.95 0.26 97
20180123145244 39 159 3.0 11.0 0.00 0.95 0.26 97
20180123143738 38 169 7.0 12.0 0.00 0.95 0.26 97
20180123142233 38 159 8.0 15.0 0.00 0.95 0.26 97
20180123140729 37 171 7.0 14.0 0.00 0.95 0.26 97
20180123135225 37 175 6.0 11.0 0.00 0.95 0.26 97
20180123133720 37 151 5.0 8.0 0.00 0.95 0.26 97
20180123132218 36 136 2.0 5.0 0.00 0.95 0.26 97
20180123130712 36 146 3.0 7.0 0.00 0.95 0.26 97
20180123125207 36 145 2.0 5.0 0.00 0.95 0.26 97
20180123123705 36 138 0.0 4.0 0.00 0.95 0.26 97
20180123122206 36 129 1.0 3.0 0.00 0.95 0.26 97
20180123120704 36 129 2.0 6.0 0.00 0.95 0.26 97
20180123115207 37 178 4.0 9.0 0.00 0.95 0.26 98
20180123113705 36 128 5.0 11.0 0.00 0.95 0.26 97
20180123112202 36 157 6.0 11.0 0.00 0.95 0.26 97
20180123110703 36 156 4.0 7.0 0.00 0.95 0.26 98
20180123105154 36 179 2.0 6.0 0.00 0.95 0.26 97
20180123103651 36 155 1.0 3.0 0.00 0.95 0.26 97
20180123102147 36 140 1.0 4.0 0.01 0.95 0.26 97
20180123100642 36 158 1.0 4.0 0.02 0.95 0.26 97
20180123095136 36 143 3.0 7.0 0.04 0.95 0.26 97
20180123093631 37 136 3.0 9.0 0.07 0.95 0.26 97
20180123092129 36 155 3.0 9.0 0.06 0.94 0.25 98
20180123090623 36 145 4.0 8.0 0.06 0.93 0.24 97
20180123085117 35 161 5.0 9.0 0.06 0.91 0.22 97
20180123083612 35 142 5.0 10.0 0.11 0.88 0.19 97
20180123082108 34 178 2.0 6.0 0.17 0.88 0.19 97
20180123080603 34 144 2.0 8.0 0.17 0.86 0.17 97
20180123075059 34 188 7.0 12.0 0.15 0.84 0.15 97
20180123073555 34 167 5.0 11.0 0.07 0.76 0.07 97
20180123072050 35 188 6.0 10.0 0.02 0.71 0.02 97
20180123070546 34 71 3.0 7.0 0.00 0.69 0.00 97
20180123065040 34 103 4.0 7.0 0.00 0.69 0.00 97
20180123063537 34 124 5.0 10.0 0.00 0.69 0.00 97
20180123062030 33 105 2.0 8.0 0.00 0.69 0.00 97
20180123060526 33 119 3.0 11.0 0.00 0.69 0.00 97
20180123055021 33 120 3.0 7.0 0.00 0.69 0.00 96